createdAt,value
2022-08-19T00:01:38.373Z,96635.22
2022-08-19T00:04:08.914Z,96636.19
2022-08-19T00:06:37.785Z,96649.53
2022-08-19T00:09:08.264Z,96649.69
2022-08-19T00:11:38.585Z,96657.78
2022-08-19T00:14:07.065Z,96645.28
2022-08-19T00:16:35.384Z,96646.13
2022-08-19T00:19:03.506Z,96624.53
2022-08-19T00:21:32.386Z,96617.44
2022-08-19T00:24:01.614Z,96623.69
2022-08-19T00:26:31.150Z,96635.47
2022-08-19T00:28:59.238Z,96633.63
2022-08-19T00:31:28.891Z,96651.66
2022-08-19T00:33:56.979Z,96648.09
2022-08-19T00:36:25.119Z,96640.00
2022-08-19T00:38:54.405Z,96644.56
2022-08-19T00:41:22.938Z,96625.69
2022-08-19T00:44:06.718Z,96622.13
2022-08-19T00:46:37.007Z,96650.09
2022-08-19T00:49:15.621Z,96680.63
2022-08-19T00:51:43.945Z,96675.25
2022-08-19T00:54:12.061Z,96664.44
2022-08-19T00:56:40.496Z,96660.06
2022-08-19T00:59:11.192Z,96668.16
2022-08-19T01:01:39.639Z,96683.47
2022-08-19T01:04:07.810Z,96694.28
2022-08-19T01:06:35.949Z,96706.09
2022-08-19T01:09:04.011Z,96717.72
2022-08-19T01:11:32.276Z,96727.69
2022-08-19T01:14:00.338Z,96709.63
2022-08-19T01:16:30.068Z,96686.31
2022-08-19T01:18:58.542Z,96672.84
2022-08-19T01:21:29.166Z,96671.00
2022-08-19T01:23:58.637Z,96668.41
2022-08-19T01:26:27.057Z,96665.72
2022-08-19T01:28:59.580Z,96664.88
2022-08-19T01:31:32.859Z,96646.81
2022-08-19T01:34:01.584Z,96647.81
2022-08-19T01:36:30.990Z,96644.13
2022-08-19T01:39:00.861Z,96629.78
2022-08-19T01:41:28.977Z,96616.28
2022-08-19T01:44:16.989Z,96601.06
2022-08-19T01:46:45.682Z,96587.56
2022-08-19T01:49:13.737Z,96576.78
2022-08-19T01:51:41.865Z,96583.19
2022-08-19T01:54:11.490Z,96588.59
2022-08-19T01:56:39.675Z,96608.31
2022-08-19T01:59:10.690Z,96614.72
2022-08-19T02:01:38.905Z,96612.00
2022-08-19T02:04:07.196Z,96625.50
2022-08-19T02:06:35.297Z,96617.41
2022-08-19T02:09:03.413Z,96609.31
2022-08-19T02:11:34.671Z,96613.84
2022-08-19T02:14:03.841Z,96619.25
2022-08-19T02:16:32.070Z,96605.91
2022-08-19T02:19:01.700Z,96596.94
2022-08-19T02:21:30.185Z,96598.66
2022-08-19T02:23:58.382Z,96588.84
2022-08-19T02:26:27.514Z,96582.59
2022-08-19T02:28:57.279Z,96581.75
2022-08-19T02:31:26.684Z,96588.84
2022-08-19T02:33:56.733Z,96587.16
2022-08-19T02:36:25.519Z,96582.59
2022-08-19T02:38:54.769Z,96564.69
2022-08-19T02:41:26.770Z,96565.56
2022-08-19T02:44:26.756Z,96570.09
2022-08-19T02:46:47.329Z,96580.03
2022-08-19T02:49:17.430Z,96584.44
2022-08-19T02:51:46.796Z,96589.13
2022-08-19T02:54:15.225Z,96594.53
2022-08-19T02:56:43.878Z,96598.06
2022-08-19T02:59:13.501Z,96597.22
2022-08-19T03:01:42.571Z,96595.38
2022-08-19T03:04:12.347Z,96585.56
2022-08-19T03:06:40.682Z,96577.47
2022-08-19T03:09:08.871Z,96578.34
2022-08-19T03:11:36.977Z,96571.22
2022-08-19T03:14:05.262Z,96567.66
2022-08-19T03:16:36.594Z,96575.75
2022-08-19T03:19:05.453Z,96579.31
2022-08-19T03:21:34.497Z,96591.94
2022-08-19T03:24:03.805Z,96583.03
2022-08-19T03:26:31.997Z,96588.41
2022-08-19T03:29:00.442Z,96597.34
2022-08-19T03:31:44.720Z,96613.53
2022-08-19T03:34:20.982Z,96636.13
2022-08-19T03:36:49.131Z,96682.88
2022-08-19T03:39:17.470Z,96751.19
2022-08-19T03:41:48.343Z,96810.56
2022-08-19T03:44:18.670Z,96780.03
2022-08-19T03:46:48.641Z,96788.97
2022-08-19T03:49:18.277Z,96764.69
2022-08-19T03:51:46.904Z,96778.16
2022-08-19T03:54:15.863Z,96759.28
2022-08-19T03:56:44.730Z,96739.41
2022-08-19T03:59:14.491Z,96756.47
2022-08-19T04:01:42.783Z,96746.50
2022-08-19T04:04:12.318Z,96746.66
2022-08-19T04:06:40.845Z,96740.66
2022-08-19T04:09:10.378Z,96728.28
2022-08-19T04:11:42.945Z,96717.78
2022-08-19T04:14:12.869Z,96714.38
2022-08-19T04:16:41.011Z,96725.41
2022-08-19T04:19:09.214Z,96732.63
2022-08-19T04:21:38.664Z,96734.63
2022-08-19T04:24:07.371Z,96742.72
2022-08-19T04:26:38.274Z,96738.31
2022-08-19T04:29:12.337Z,96713.31
2022-08-19T04:31:41.146Z,96698.25
2022-08-19T04:34:11.844Z,96674.97
2022-08-19T04:36:42.737Z,96662.44
2022-08-19T04:39:12.101Z,96656.16
2022-08-19T04:41:57.583Z,96644.53
2022-08-19T04:44:26.630Z,96636.56
2022-08-19T04:46:55.170Z,96647.34
2022-08-19T04:49:23.967Z,96648.22
2022-08-19T04:51:54.936Z,96667.09
2022-08-19T04:54:38.186Z,96671.63
2022-08-19T04:57:07.967Z,96667.22
2022-08-19T04:59:36.437Z,96679.00
2022-08-19T05:02:04.645Z,96691.50
2022-08-19T05:04:33.778Z,96693.50
2022-08-19T05:07:03.339Z,96693.50
2022-08-19T05:09:52.541Z,96695.31
2022-08-19T05:12:20.200Z,96689.06
2022-08-19T05:14:48.401Z,96694.59
2022-08-19T05:17:36.280Z,96691.91
2022-08-19T05:20:23.078Z,96711.78
2022-08-19T05:22:53.508Z,96716.19
2022-08-19T05:25:22.700Z,96716.31
2022-08-19T05:27:50.845Z,96723.41
2022-08-19T05:30:33.496Z,96713.75
2022-08-19T05:33:07.441Z,96720.28
2022-08-19T05:35:35.493Z,96723.09
2022-08-19T05:38:05.609Z,96711.47
2022-08-19T05:40:34.182Z,96708.91
2022-08-19T05:43:02.286Z,96699.66
2022-08-19T05:45:30.394Z,96711.31
2022-08-19T05:47:59.328Z,96734.63
2022-08-19T05:50:27.766Z,96722.81
2022-08-19T05:52:56.014Z,96729.09
2022-08-19T05:55:25.562Z,96728.22
2022-08-19T05:57:53.687Z,96732.75
2022-08-19T06:00:24.665Z,96734.63
2022-08-19T06:02:53.266Z,96730.06
2022-08-19T06:05:21.547Z,96721.25
2022-08-19T06:07:50.056Z,96725.66
2022-08-19T06:10:18.185Z,96721.13
2022-08-19T06:12:47.731Z,96713.03
2022-08-19T06:15:16.001Z,96704.09
2022-08-19T06:17:45.331Z,96711.19
2022-08-19T06:20:34.354Z,96720.13
2022-08-19T06:23:07.070Z,96717.44
2022-08-19T06:25:35.157Z,96715.59
2022-08-19T06:28:15.068Z,96700.28
2022-08-19T06:30:43.831Z,96708.22
2022-08-19T06:33:11.907Z,96706.41
2022-08-19T06:35:41.200Z,96699.28
2022-08-19T06:38:10.385Z,96705.53
2022-08-19T06:40:39.529Z,96706.41
2022-08-19T06:43:09.542Z,96726.09
2022-08-19T06:45:39.722Z,96737.75
2022-08-19T06:48:08.469Z,96742.19
2022-08-19T06:50:39.793Z,96742.03
2022-08-19T06:53:09.258Z,96743.88
2022-08-19T06:55:38.596Z,96752.97
2022-08-19T06:58:08.131Z,96779.81
2022-08-19T07:00:37.573Z,96793.31
2022-08-19T07:03:08.747Z,96807.50
2022-08-19T07:05:45.272Z,96807.50
2022-08-19T07:08:14.342Z,96799.28
2022-08-19T07:10:45.582Z,96805.53
2022-08-19T07:13:15.115Z,96786.66
2022-08-19T07:15:43.322Z,96783.97
2022-08-19T07:18:11.863Z,96782.13
2022-08-19T07:20:41.932Z,96784.81
2022-08-19T07:23:15.892Z,96792.81
2022-08-19T07:25:52.914Z,96791.81
2022-08-19T07:28:24.816Z,96784.72
2022-08-19T07:30:53.734Z,96777.56
2022-08-19T07:33:22.076Z,96761.78
2022-08-19T07:35:50.881Z,96763.63
2022-08-19T07:38:19.037Z,96764.59
2022-08-19T07:40:47.539Z,96781.66
2022-08-19T07:43:17.374Z,96773.41
2022-08-19T07:45:53.190Z,96773.31
2022-08-19T07:48:24.350Z,96764.22
2022-08-19T07:50:52.911Z,96757.13
2022-08-19T07:53:21.064Z,96750.72
2022-08-19T07:55:49.190Z,96742.78
2022-08-19T07:58:19.749Z,96753.56
2022-08-19T08:00:48.658Z,96766.31
2022-08-19T08:03:19.954Z,96772.59
2022-08-19T08:06:05.630Z,96766.31
2022-08-19T08:08:53.638Z,96769.03
2022-08-19T08:11:23.996Z,96772.69
2022-08-19T08:14:00.786Z,96771.72
2022-08-19T08:16:32.207Z,96766.31
2022-08-19T08:19:01.938Z,96768.03
2022-08-19T08:21:30.116Z,96759.81
2022-08-19T08:26:31.446Z,96760.66
2022-08-19T08:29:02.753Z,96764.50
2022-08-19T08:31:41.633Z,96762.91
2022-08-19T08:34:11.385Z,96759.34
2022-08-19T08:36:42.679Z,96747.69
2022-08-19T08:39:11.366Z,96736.91
2022-08-19T08:41:42.720Z,96731.66
2022-08-19T08:44:24.326Z,96715.47
2022-08-19T08:46:55.767Z,96717.28
2022-08-19T08:49:35.809Z,96711.06
2022-08-19T08:52:06.710Z,96701.09
2022-08-19T08:54:37.262Z,96685.78
2022-08-19T08:57:08.385Z,96696.31
2022-08-19T08:59:37.581Z,96703.56
2022-08-19T09:02:06.062Z,96715.06
2022-08-19T09:04:36.086Z,96723.16
2022-08-19T09:07:22.891Z,96738.25
2022-08-19T09:10:07.391Z,96735.66
2022-08-19T09:12:42.946Z,96739.06
2022-08-19T09:15:12.501Z,96726.44
2022-08-19T09:17:40.836Z,96730.88
2022-08-19T09:20:21.500Z,96719.09
2022-08-19T09:22:50.259Z,96711.88
2022-08-19T09:25:24.614Z,96709.03
2022-08-19T09:28:02.657Z,96709.91
2022-08-19T09:30:32.885Z,96706.19
2022-08-19T09:33:01.090Z,96698.00
2022-08-19T09:35:31.353Z,96696.97
2022-08-19T09:38:00.146Z,96691.72
2022-08-19T09:40:30.333Z,96696.25
2022-08-19T09:43:09.856Z,96673.00
2022-08-19T09:45:38.526Z,96655.78
2022-08-19T09:48:07.250Z,96656.66
2022-08-19T09:50:51.771Z,96672.56
2022-08-19T09:53:20.630Z,96682.38
2022-08-19T09:55:48.722Z,96693.03
2022-08-19T09:58:17.006Z,96706.38
2022-08-19T10:00:45.091Z,96722.47
2022-08-19T10:03:19.159Z,96744.78
2022-08-19T10:05:55.154Z,96740.19
2022-08-19T10:08:26.450Z,96726.72
2022-08-19T10:10:55.876Z,96726.59
2022-08-19T10:13:26.051Z,96723.91
2022-08-19T10:15:54.269Z,96732.72
2022-08-19T10:18:24.100Z,96721.91
2022-08-19T10:20:54.650Z,96724.47
2022-08-19T10:23:23.026Z,96729.00
2022-08-19T10:25:54.290Z,96724.47
2022-08-19T10:28:22.699Z,96741.53
2022-08-19T10:30:51.798Z,96747.03
2022-08-19T10:33:39.039Z,96751.59
2022-08-19T10:36:11.427Z,96730.03
2022-08-19T10:38:39.754Z,96713.94
2022-08-19T10:41:23.398Z,96722.91
2022-08-19T10:43:53.518Z,96704.00
2022-08-19T10:46:21.650Z,96692.34
2022-08-19T10:48:49.766Z,96695.91
2022-08-19T10:51:37.350Z,96708.44
2022-08-19T10:54:14.795Z,96703.88
2022-08-19T10:56:53.754Z,96688.69
2022-08-19T10:59:23.189Z,96691.38
2022-08-19T11:01:55.753Z,96684.13
2022-08-19T11:04:28.806Z,96687.66
2022-08-19T11:06:59.181Z,96700.19
2022-08-19T11:09:33.552Z,96712.69
2022-08-19T11:12:02.745Z,96733.28
2022-08-19T11:14:34.326Z,96744.94
2022-08-19T11:17:02.665Z,96745.78
2022-08-19T11:19:31.042Z,96733.16
2022-08-19T11:22:00.803Z,96729.47
2022-08-19T11:24:29.579Z,96718.69
2022-08-19T11:27:03.658Z,96709.59
2022-08-19T11:29:31.919Z,96721.25
2022-08-19T11:32:02.480Z,96735.59
2022-08-19T11:34:31.054Z,96739.13
2022-08-19T11:37:00.719Z,96725.63
2022-08-19T11:39:30.082Z,96720.13
2022-08-19T11:41:58.358Z,96715.56
2022-08-19T11:44:26.771Z,96722.53
2022-08-19T11:46:54.936Z,96712.59
2022-08-19T11:49:23.442Z,96717.00
2022-08-19T11:51:52.045Z,96711.50
2022-08-19T11:54:23.433Z,96701.50
2022-08-19T11:56:51.569Z,96702.38
2022-08-19T11:59:19.691Z,96697.84
2022-08-19T12:01:47.825Z,96693.28
2022-08-19T12:04:15.968Z,96686.75
2022-08-19T12:06:46.757Z,96686.75
2022-08-19T12:09:16.493Z,96686.63
2022-08-19T12:11:46.880Z,96681.22
2022-08-19T12:14:15.344Z,96684.78
2022-08-19T12:16:51.177Z,96690.03
2022-08-19T12:19:21.894Z,96677.41
2022-08-19T12:21:50.851Z,96669.28
2022-08-19T12:24:23.952Z,96664.75
2022-08-19T12:26:54.862Z,96656.50
2022-08-19T12:29:29.599Z,96662.63
2022-08-19T12:32:02.318Z,96660.94
2022-08-19T12:34:32.301Z,96654.38
2022-08-19T12:37:00.662Z,96643.59
2022-08-19T12:39:28.799Z,96648.00
2022-08-19T12:41:59.007Z,96659.66
2022-08-19T12:44:29.486Z,96663.19
2022-08-19T12:47:00.115Z,96670.31
2022-08-19T12:49:52.420Z,96684.69
2022-08-19T12:52:23.459Z,96677.41
2022-08-19T12:54:54.356Z,96678.13
2022-08-19T12:57:32.942Z,96672.63
2022-08-19T13:00:04.901Z,96672.47
2022-08-19T13:02:38.999Z,96676.88
2022-08-19T13:05:09.716Z,96676.88
2022-08-19T13:07:38.449Z,96663.38
2022-08-19T13:10:07.894Z,96671.34
2022-08-19T13:12:37.526Z,96661.53
2022-08-19T13:15:07.342Z,96656.13
2022-08-19T13:17:39.672Z,96655.16
2022-08-19T13:20:09.833Z,96653.28
2022-08-19T13:22:37.977Z,96658.69
2022-08-19T13:25:07.214Z,96648.75
2022-08-19T13:27:35.353Z,96641.50
2022-08-19T13:30:24.035Z,96628.84
2022-08-19T13:33:08.699Z,96639.50
2022-08-19T13:35:36.873Z,96635.94
2022-08-19T13:38:05.854Z,96638.66
2022-08-19T13:40:41.252Z,96633.09
2022-08-19T13:43:17.847Z,96625.00
2022-08-19T13:45:53.793Z,96616.91
2022-08-19T13:48:21.985Z,96623.16
2022-08-19T13:50:50.201Z,96612.25
2022-08-19T13:53:18.463Z,96611.25
2022-08-19T13:55:46.641Z,96613.97
2022-08-19T13:58:14.721Z,96615.66
2022-08-19T14:00:45.163Z,96609.44
2022-08-19T14:03:14.722Z,96611.13
2022-08-19T14:05:42.839Z,96602.16
2022-08-19T14:08:11.034Z,96610.13
2022-08-19T14:10:39.155Z,96607.44
2022-08-19T14:13:07.259Z,96602.88
2022-08-19T14:15:35.365Z,96603.72
2022-08-19T14:18:03.480Z,96593.63
2022-08-19T14:20:32.970Z,96592.78
2022-08-19T14:23:01.081Z,96597.19
2022-08-19T14:25:30.193Z,96600.75
2022-08-19T14:27:58.483Z,96598.06
2022-08-19T14:30:27.901Z,96608.72
2022-08-19T14:32:56.205Z,96610.56
2022-08-19T14:35:24.719Z,96603.31
2022-08-19T14:37:56.996Z,96607.84
2022-08-19T14:40:26.978Z,96607.84
2022-08-19T14:42:56.757Z,96612.28
2022-08-19T14:45:24.925Z,96617.69
2022-08-19T14:47:53.553Z,96625.63
2022-08-19T14:50:21.930Z,96627.47
2022-08-19T14:52:50.374Z,96619.38
2022-08-19T14:55:20.298Z,96621.22
2022-08-19T14:57:48.577Z,96614.97
2022-08-19T15:00:17.918Z,96612.13
2022-08-19T15:02:46.219Z,96616.66
2022-08-19T15:05:14.830Z,96624.78
2022-08-19T15:07:43.054Z,96619.38
2022-08-19T15:10:12.053Z,96613.09
2022-08-19T15:12:43.396Z,96618.50
2022-08-19T15:15:14.740Z,96611.28
2022-08-19T15:17:45.399Z,96604.19
2022-08-19T15:20:16.564Z,96590.66
2022-08-19T15:22:44.804Z,96579.72
2022-08-19T15:25:14.540Z,96570.75
2022-08-19T15:27:44.310Z,96564.50
2022-08-19T15:30:13.298Z,96559.09
2022-08-19T15:32:41.420Z,96557.25
2022-08-19T15:35:09.835Z,96546.44
2022-08-19T15:37:38.024Z,96546.44
2022-08-19T15:40:07.553Z,96544.75
2022-08-19T15:42:36.487Z,96553.69
2022-08-19T15:45:08.176Z,96571.75
2022-08-19T15:47:37.830Z,96571.75
2022-08-19T15:50:10.472Z,96570.75
2022-08-19T15:52:48.433Z,96570.03
2022-08-19T15:55:32.815Z,96569.06
2022-08-19T15:58:24.129Z,96574.47
2022-08-19T16:01:15.973Z,96570.91
2022-08-19T16:04:01.708Z,96571.75
2022-08-19T16:06:29.973Z,96576.31
2022-08-19T16:08:59.017Z,96568.19
2022-08-19T16:11:30.423Z,96578.00
2022-08-19T16:13:59.095Z,96590.66
2022-08-19T16:16:31.073Z,96596.06
2022-08-19T16:19:02.789Z,96605.88
2022-08-19T16:21:33.448Z,96605.88
2022-08-19T16:24:02.133Z,96609.44
2022-08-19T16:26:31.161Z,96611.28
2022-08-19T16:29:00.236Z,96615.69
2022-08-19T16:31:29.827Z,96620.22
2022-08-19T16:33:58.064Z,96622.94
2022-08-19T16:36:26.134Z,96626.50
2022-08-19T16:38:54.718Z,96612.13
2022-08-19T16:41:23.476Z,96618.41
2022-08-19T16:43:52.596Z,96624.78
2022-08-19T16:46:20.722Z,96613.00
2022-08-19T16:48:52.157Z,96627.47
2022-08-19T16:51:22.766Z,96622.06
2022-08-19T16:53:52.724Z,96616.66
2022-08-19T16:56:21.315Z,96614.69
2022-08-19T16:58:50.950Z,96603.00
2022-08-19T17:01:19.714Z,96610.16
2022-08-19T17:03:50.581Z,96603.88
2022-08-19T17:06:21.935Z,96598.31
2022-08-19T17:08:50.739Z,96607.44
2022-08-19T17:11:19.663Z,96613.69
2022-08-19T17:13:51.004Z,96614.69
2022-08-19T17:16:20.210Z,96611.84
2022-08-19T17:18:52.576Z,96604.75
2022-08-19T17:21:22.580Z,96592.09
2022-08-19T17:23:50.728Z,96592.94
2022-08-19T17:26:19.019Z,96580.44
2022-08-19T17:28:47.336Z,96574.16
2022-08-19T17:31:15.482Z,96582.28
2022-08-19T17:33:43.687Z,96583.13
2022-08-19T17:36:16.834Z,96593.94
2022-08-19T17:38:46.343Z,96586.69
2022-08-19T17:41:14.502Z,96586.69
2022-08-19T17:43:43.839Z,96593.94
2022-08-19T17:46:17.544Z,96592.22
2022-08-19T17:48:51.872Z,96583.28
2022-08-19T17:51:22.586Z,96590.53
2022-08-19T17:53:52.670Z,96588.53
2022-08-19T17:56:21.190Z,96593.94
2022-08-19T17:58:57.884Z,96592.94
2022-08-19T18:01:32.729Z,96603.72
2022-08-19T18:04:19.026Z,96618.81
2022-08-19T18:06:53.212Z,96623.34
2022-08-19T18:09:24.599Z,96628.75
2022-08-19T18:11:54.068Z,96634.16
2022-08-19T18:14:33.419Z,96641.44
2022-08-19T18:17:02.920Z,96646.13
2022-08-19T18:19:41.233Z,96651.63
2022-08-19T18:22:11.734Z,96658.19
2022-08-19T18:24:41.719Z,96658.19
2022-08-19T18:27:10.085Z,96669.00
2022-08-19T18:29:40.162Z,96664.72
2022-08-19T18:32:12.790Z,96665.69
2022-08-19T18:34:41.252Z,96666.72
2022-08-19T18:37:09.395Z,96674.81
2022-08-19T18:39:55.181Z,96671.25
2022-08-19T18:42:41.982Z,96679.50
2022-08-19T18:45:28.142Z,96673.25
2022-08-19T18:48:26.933Z,96680.47
2022-08-19T18:50:59.864Z,96675.94
2022-08-19T18:53:28.469Z,96688.59
2022-08-19T18:55:56.733Z,96688.72
2022-08-19T18:58:33.677Z,96691.28
2022-08-19T19:01:02.945Z,96696.84
2022-08-19T19:03:31.104Z,96705.78
2022-08-19T19:05:59.676Z,96710.19
2022-08-19T19:08:28.158Z,96711.06
2022-08-19T19:10:57.157Z,96712.06
2022-08-19T19:13:28.930Z,96703.09
2022-08-19T19:15:57.081Z,96708.50
2022-08-19T19:18:25.188Z,96702.22
2022-08-19T19:20:53.374Z,96695.13
2022-08-19T19:23:22.496Z,96694.28
2022-08-19T19:25:52.349Z,96693.38
2022-08-19T19:28:25.796Z,96703.31
2022-08-19T19:30:57.627Z,96704.31
2022-08-19T19:33:25.887Z,96717.84
2022-08-19T19:35:54.101Z,96709.00
2022-08-19T19:38:22.194Z,96720.69
2022-08-19T19:40:50.365Z,96729.75
2022-08-19T19:43:19.166Z,96737.00
2022-08-19T19:45:48.321Z,96742.41
2022-08-19T19:48:18.058Z,96749.66
2022-08-19T19:50:46.486Z,96764.00
2022-08-19T19:53:22.500Z,96772.25
2022-08-19T19:55:51.757Z,96800.97
2022-08-19T19:58:22.758Z,96809.09
2022-08-19T20:00:58.083Z,96811.06
2022-08-19T20:03:27.746Z,96814.59
2022-08-19T20:05:59.419Z,96813.75
2022-08-19T20:08:45.904Z,96806.63
2022-08-19T20:11:16.886Z,96804.94
2022-08-19T20:13:44.989Z,96800.38
2022-08-19T20:16:13.448Z,96794.97
2022-08-19T20:18:43.739Z,96794.13
2022-08-19T20:21:12.409Z,96808.34
2022-08-19T20:23:40.501Z,96811.06
2022-08-19T20:26:12.211Z,96811.88
2022-08-19T20:28:58.267Z,96811.06
2022-08-19T20:31:40.335Z,96809.34
2022-08-19T20:34:26.752Z,96808.47
2022-08-19T20:36:54.852Z,96814.72
2022-08-19T20:39:22.999Z,96808.47
2022-08-19T20:41:51.123Z,96799.53
2022-08-19T20:44:19.485Z,96797.66
2022-08-19T20:46:55.333Z,96796.84
2022-08-19T20:49:27.107Z,96802.25
2022-08-19T20:51:55.915Z,96803.06
2022-08-19T20:54:24.252Z,96800.38
2022-08-19T20:56:52.991Z,96800.38
2022-08-19T20:59:21.138Z,96807.63
2022-08-19T21:01:51.766Z,96807.63
2022-08-19T21:04:20.122Z,96804.94
2022-08-19T21:06:49.647Z,96808.47
2022-08-19T21:09:18.234Z,96813.03
2022-08-19T21:11:46.362Z,96804.06
2022-08-19T21:14:14.577Z,96794.25
2022-08-19T21:16:42.707Z,96787.00
2022-08-19T21:19:10.807Z,96782.63
2022-08-19T21:21:38.883Z,96780.75
2022-08-19T21:24:08.649Z,96778.03
2022-08-19T21:26:36.880Z,96777.22
2022-08-19T21:29:05.046Z,96770.94
2022-08-19T21:31:33.193Z,96765.56
2022-08-19T21:34:01.497Z,96769.13
2022-08-19T21:36:29.637Z,96767.38
2022-08-19T21:38:57.806Z,96774.63
2022-08-19T21:41:27.301Z,96781.75
2022-08-19T21:43:55.461Z,96780.03
2022-08-19T21:46:23.605Z,96777.31
2022-08-19T21:48:51.718Z,96773.78
2022-08-19T21:51:19.870Z,96768.41
2022-08-19T21:53:49.390Z,96764.84
2022-08-19T21:56:21.286Z,96760.28
2022-08-19T21:58:50.772Z,96763.97
2022-08-19T22:01:19.088Z,96774.78
2022-08-19T22:03:47.227Z,96775.63
2022-08-19T22:06:16.424Z,96784.72
2022-08-19T22:08:44.911Z,96788.28
2022-08-19T22:11:13.166Z,96781.19
2022-08-19T22:13:41.414Z,96789.28
2022-08-19T22:16:11.086Z,96799.22
2022-08-19T22:18:39.230Z,96805.47
2022-08-19T22:21:11.551Z,96801.91
2022-08-19T22:23:40.562Z,96803.75
2022-08-19T22:26:08.834Z,96804.63
2022-08-19T22:28:37.026Z,96803.75
2022-08-19T22:31:05.947Z,96800.19
2022-08-19T22:33:37.468Z,96797.50
2022-08-19T22:36:07.513Z,96801.06
2022-08-19T22:38:35.844Z,96805.59
2022-08-19T22:41:04.005Z,96804.75
2022-08-19T22:43:33.058Z,96799.34
2022-08-19T22:46:01.494Z,96804.75
2022-08-19T22:48:30.601Z,96802.06
2022-08-19T22:51:17.718Z,96788.56
2022-08-19T22:53:46.867Z,96777.88
2022-08-19T22:56:17.371Z,96781.44
2022-08-19T22:58:45.915Z,96773.31
2022-08-19T23:01:27.440Z,96768.94
2022-08-19T23:03:59.045Z,96772.47
2022-08-19T23:06:33.295Z,96774.34
2022-08-19T23:09:04.648Z,96779.72
2022-08-19T23:11:35.692Z,96778.88
2022-08-19T23:14:10.463Z,96778.00
2022-08-19T23:16:38.541Z,96778.00
2022-08-19T23:19:07.605Z,96781.56
2022-08-19T23:21:37.353Z,96780.72
2022-08-19T23:24:06.159Z,96775.31
2022-08-19T23:26:36.100Z,96778.16
2022-08-19T23:29:23.005Z,96770.06
2022-08-19T23:31:51.138Z,96770.06
2022-08-19T23:34:19.247Z,96771.88
2022-08-19T23:36:50.852Z,96779.13
2022-08-19T23:39:19.443Z,96778.28
2022-08-19T23:41:47.610Z,96784.53
2022-08-19T23:44:15.795Z,96781.00
2022-08-19T23:46:54.595Z,96776.44
2022-08-19T23:49:25.132Z,96777.44
2022-08-19T23:51:55.511Z,96780.13
2022-08-19T23:54:34.203Z,96781.09
2022-08-19T23:57:13.503Z,96776.56
2022-08-19T23:59:45.482Z,96781.09
